Airfield :
LOGIN :

Register | Disclaimer

   EN    FR    IT 

 










Legend :    VFR   Marginal VFR   IFR   Intensive IFR   Very Intensive IFR
Visi :
Ceiling :
>= 8 km
>= 3000ft
5 to 8 km
1000 to 3000 ft
1500m to 5 km
500 to 1000 ft
800 to 1500m
200 to 500 ft
< 800m
< 200 ft
Symbols :   Thunderstorms  Fog  Heavy snow  Heavy precipitations  Wind > 20 kt
SIGMETs :     Misc.  Thunderstorms  Icing  Turbulence  Mountain Waves  Volcanic Ashes






- Airport Elevation : 741 ft
- IATA code : PED


LKPD - Pardubice AB

CURRENT METAR :
  • 191500Z 00000KT CAVOK 11/04 Q1023 NOSIG RMK BLU BLU

EXPIRED METARs :
  • 191430Z VRB01KT CAVOK 11/05 Q1023 NOSIG RMK BLU BLU
  • 191400Z VRB02KT CAVOK 11/04 Q1023 NOSIG RMK BLU BLU
  • 191330Z 31003KT 260V360 CAVOK 11/04 Q1023 NOSIG RMK BLU BLU
  • 191300Z 27003KT 210V310 CAVOK 12/04 Q1023 NOSIG RMK BLU BLU
  • 191230Z VRB02KT CAVOK 11/04 Q1023 NOSIG

TAF TAF LKPD
Valid from the 19 at 12:00 until the 20 at 12:00 UTC


191100Z 1912/2012 28005KT CAVOK
TEMPO 1912/1915 BKN035
BECMG 1916/1918 12005KT
TEMPO 2003/2008 BKN018
BECMG 2010/2012 17006KT



MET'MAP, your aeronautical weather chart ! - Copyright ORBIFLY December 2007 - Disclaimer

ORBIFLY MET'MAP TEAM :

Programming & Development : Alexandra Zaïnal
Concept & original design : Baudouin d'Aumeries
Assistance for programming : Marc-Olivier Méhu
Technical & hardware support : Manuel Goepfert

Contact : metmap@orbifly.com




SOURCES & CREDITS :

   NOAA